sensor_id;sensor_type;location;lat;lon;timestamp;pressure;altitude;pressure_sealevel;temperature;humidity
16613;BME280;8419;52.358;9.752;2023-02-04T00:02:04;102072.00;;;15.29;43.49
16613;BME280;8419;52.358;9.752;2023-02-04T00:04:49;102070.00;;;15.28;43.43
16613;BME280;8419;52.358;9.752;2023-02-04T00:07:34;102085.00;;;15.27;43.44
16613;BME280;8419;52.358;9.752;2023-02-04T00:10:20;102076.00;;;15.25;43.40
16613;BME280;8419;52.358;9.752;2023-02-04T00:13:05;102081.00;;;15.25;43.28
16613;BME280;8419;52.358;9.752;2023-02-04T00:15:51;102080.00;;;15.40;42.88
16613;BME280;8419;52.358;9.752;2023-02-04T00:18:36;102086.00;;;15.37;42.73
16613;BME280;8419;52.358;9.752;2023-02-04T00:21:21;102086.00;;;15.28;42.70
16613;BME280;8419;52.358;9.752;2023-02-04T00:24:07;102110.00;;;15.17;42.77
16613;BME280;8419;52.358;9.752;2023-02-04T00:26:53;102104.00;;;15.32;42.42
16613;BME280;8419;52.358;9.752;2023-02-04T00:29:39;102105.00;;;15.33;42.43
16613;BME280;8419;52.358;9.752;2023-02-04T00:32:24;102104.00;;;15.35;42.13
16613;BME280;8419;52.358;9.752;2023-02-04T00:35:10;102102.00;;;15.33;42.11
16613;BME280;8419;52.358;9.752;2023-02-04T00:37:56;102107.00;;;15.37;41.89
16613;BME280;8419;52.358;9.752;2023-02-04T00:40:41;102111.00;;;15.35;41.90
16613;BME280;8419;52.358;9.752;2023-02-04T00:43:27;102124.00;;;15.25;41.98
16613;BME280;8419;52.358;9.752;2023-02-04T00:46:13;102127.00;;;15.24;41.87
16613;BME280;8419;52.358;9.752;2023-02-04T00:48:58;102129.00;;;15.22;41.84
16613;BME280;8419;52.358;9.752;2023-02-04T00:51:43;102142.00;;;15.20;41.90
16613;BME280;8419;52.358;9.752;2023-02-04T00:54:30;102152.00;;;15.23;41.86
16613;BME280;8419;52.358;9.752;2023-02-04T00:57:15;102156.00;;;15.19;41.89
16613;BME280;8419;52.358;9.752;2023-02-04T01:00:02;102171.00;;;15.23;41.83
16613;BME280;8419;52.358;9.752;2023-02-04T01:02:47;102176.00;;;15.26;42.00
16613;BME280;8419;52.358;9.752;2023-02-04T01:05:33;102190.00;;;15.51;41.63
16613;BME280;8419;52.358;9.752;2023-02-04T01:08:18;102193.00;;;15.53;41.76
16613;BME280;8419;52.358;9.752;2023-02-04T01:11:04;102205.00;;;15.57;41.66
16613;BME280;8419;52.358;9.752;2023-02-04T01:13:50;102210.00;;;15.66;41.58
16613;BME280;8419;52.358;9.752;2023-02-04T01:16:35;102212.00;;;15.71;41.57
16613;BME280;8419;52.358;9.752;2023-02-04T01:19:21;102220.00;;;15.77;41.28
16613;BME280;8419;52.358;9.752;2023-02-04T01:22:07;102232.00;;;15.79;41.09
16613;BME280;8419;52.358;9.752;2023-02-04T01:24:52;102245.00;;;15.71;41.24
16613;BME280;8419;52.358;9.752;2023-02-04T01:27:38;102255.00;;;15.77;41.13
16613;BME280;8419;52.358;9.752;2023-02-04T01:30:23;102252.00;;;15.86;40.98
16613;BME280;8419;52.358;9.752;2023-02-04T01:33:09;102252.00;;;15.92;40.82
16613;BME280;8419;52.358;9.752;2023-02-04T01:35:54;102259.00;;;15.95;40.79
16613;BME280;8419;52.358;9.752;2023-02-04T01:38:39;102261.00;;;16.03;40.67
16613;BME280;8419;52.358;9.752;2023-02-04T01:41:25;102255.00;;;15.99;40.68
16613;BME280;8419;52.358;9.752;2023-02-04T01:44:11;102258.00;;;15.93;40.66
16613;BME280;8419;52.358;9.752;2023-02-04T01:46:57;102273.00;;;15.82;40.79
16613;BME280;8419;52.358;9.752;2023-02-04T01:49:43;102278.00;;;15.84;40.77
16613;BME280;8419;52.358;9.752;2023-02-04T01:52:33;102283.00;;;15.84;40.84
16613;BME280;8419;52.358;9.752;2023-02-04T01:55:24;102294.00;;;15.86;40.77
16613;BME280;8419;52.358;9.752;2023-02-04T01:58:10;102306.00;;;15.76;40.82
16613;BME280;8419;52.358;9.752;2023-02-04T02:00:56;102317.00;;;15.85;40.71
16613;BME280;8419;52.358;9.752;2023-02-04T02:03:42;102321.00;;;15.88;40.63
16613;BME280;8419;52.358;9.752;2023-02-04T02:06:29;102334.00;;;15.92;40.52
16613;BME280;8419;52.358;9.752;2023-02-04T02:09:14;102336.00;;;15.92;40.50
16613;BME280;8419;52.358;9.752;2023-02-04T02:12:01;102335.00;;;15.91;40.51
16613;BME280;8419;52.358;9.752;2023-02-04T02:14:47;102347.00;;;15.90;40.53
16613;BME280;8419;52.358;9.752;2023-02-04T02:17:32;102344.00;;;15.89;40.54
16613;BME280;8419;52.358;9.752;2023-02-04T02:20:20;102351.00;;;16.05;40.26
16613;BME280;8419;52.358;9.752;2023-02-04T02:23:14;102346.00;;;15.90;40.51
16613;BME280;8419;52.358;9.752;2023-02-04T02:26:04;102348.00;;;15.94;40.40
16613;BME280;8419;52.358;9.752;2023-02-04T02:28:50;102358.00;;;15.81;40.56
16613;BME280;8419;52.358;9.752;2023-02-04T02:31:35;102356.00;;;15.75;40.45
16613;BME280;8419;52.358;9.752;2023-02-04T02:34:21;102377.00;;;15.69;40.46
16613;BME280;8419;52.358;9.752;2023-02-04T02:37:07;102384.00;;;15.59;40.40
16613;BME280;8419;52.358;9.752;2023-02-04T02:39:53;102394.00;;;15.38;40.53
16613;BME280;8419;52.358;9.752;2023-02-04T02:42:39;102391.00;;;15.18;40.77
16613;BME280;8419;52.358;9.752;2023-02-04T02:45:27;102395.00;;;15.08;40.83
16613;BME280;8419;52.358;9.752;2023-02-04T02:48:13;102406.00;;;15.00;40.79
16613;BME280;8419;52.358;9.752;2023-02-04T02:50:59;102412.00;;;14.91;40.78
16613;BME280;8419;52.358;9.752;2023-02-04T02:53:46;102417.00;;;14.87;40.69
16613;BME280;8419;52.358;9.752;2023-02-04T02:56:33;102416.00;;;14.81;40.68
16613;BME280;8419;52.358;9.752;2023-02-04T02:59:19;102426.00;;;14.75;40.67
16613;BME280;8419;52.358;9.752;2023-02-04T03:02:05;102433.00;;;14.72;40.58
16613;BME280;8419;52.358;9.752;2023-02-04T03:04:53;102432.00;;;14.58;40.68
16613;BME280;8419;52.358;9.752;2023-02-04T03:07:40;102440.00;;;14.47;40.75
16613;BME280;8419;52.358;9.752;2023-02-04T03:10:26;102443.00;;;14.47;40.66
16613;BME280;8419;52.358;9.752;2023-02-04T03:13:13;102458.00;;;14.42;40.68
16613;BME280;8419;52.358;9.752;2023-02-04T03:16:00;102459.00;;;14.38;40.81
16613;BME280;8419;52.358;9.752;2023-02-04T03:18:46;102465.00;;;14.43;40.81
16613;BME280;8419;52.358;9.752;2023-02-04T03:21:33;102474.00;;;14.60;40.63
16613;BME280;8419;52.358;9.752;2023-02-04T03:24:18;102475.00;;;14.66;40.52
16613;BME280;8419;52.358;9.752;2023-02-04T03:27:04;102483.00;;;14.62;40.62
16613;BME280;8419;52.358;9.752;2023-02-04T03:29:50;102492.00;;;14.54;40.59
16613;BME280;8419;52.358;9.752;2023-02-04T03:32:36;102511.00;;;14.47;40.61
16613;BME280;8419;52.358;9.752;2023-02-04T03:35:22;102516.00;;;14.21;40.89
16613;BME280;8419;52.358;9.752;2023-02-04T03:38:07;102521.00;;;14.15;40.90
16613;BME280;8419;52.358;9.752;2023-02-04T03:40:52;102530.00;;;14.24;40.78
16613;BME280;8419;52.358;9.752;2023-02-04T03:43:38;102544.00;;;14.29;40.73
16613;BME280;8419;52.358;9.752;2023-02-04T03:46:24;102543.00;;;14.34;40.60
16613;BME280;8419;52.358;9.752;2023-02-04T03:49:11;102541.00;;;14.47;40.43
16613;BME280;8419;52.358;9.752;2023-02-04T03:51:57;102539.00;;;14.43;40.55
16613;BME280;8419;52.358;9.752;2023-02-04T03:54:42;102552.00;;;14.52;40.50
16613;BME280;8419;52.358;9.752;2023-02-04T03:57:28;102545.00;;;14.60;40.35
16613;BME280;8419;52.358;9.752;2023-02-04T04:00:14;102555.00;;;14.58;40.52
16613;BME280;8419;52.358;9.752;2023-02-04T04:03:00;102552.00;;;14.80;40.19
16613;BME280;8419;52.358;9.752;2023-02-04T04:05:49;102556.00;;;14.93;40.04
16613;BME280;8419;52.358;9.752;2023-02-04T04:08:34;102568.00;;;14.89;40.10
16613;BME280;8419;52.358;9.752;2023-02-04T04:11:21;102572.00;;;14.95;40.02
16613;BME280;8419;52.358;9.752;2023-02-04T04:14:07;102580.00;;;14.87;40.12
16613;BME280;8419;52.358;9.752;2023-02-04T04:16:53;102577.00;;;14.90;40.07
16613;BME280;8419;52.358;9.752;2023-02-04T04:19:39;102580.00;;;14.77;40.21
16613;BME280;8419;52.358;9.752;2023-02-04T04:22:24;102584.00;;;14.66;40.30
16613;BME280;8419;52.358;9.752;2023-02-04T04:25:10;102585.00;;;14.46;40.48
16613;BME280;8419;52.358;9.752;2023-02-04T04:27:55;102587.00;;;14.40;40.44
16613;BME280;8419;52.358;9.752;2023-02-04T04:30:40;102589.00;;;14.27;40.43
16613;BME280;8419;52.358;9.752;2023-02-04T04:33:26;102605.00;;;14.23;40.37
16613;BME280;8419;52.358;9.752;2023-02-04T04:36:11;102612.00;;;14.11;40.34
16613;BME280;8419;52.358;9.752;2023-02-04T04:38:56;102611.00;;;14.01;40.35
16613;BME280;8419;52.358;9.752;2023-02-04T04:41:42;102617.00;;;13.82;40.57
16613;BME280;8419;52.358;9.752;2023-02-04T04:44:28;102625.00;;;13.69;40.63
16613;BME280;8419;52.358;9.752;2023-02-04T04:47:13;102629.00;;;13.64;40.63
16613;BME280;8419;52.358;9.752;2023-02-04T04:50:00;102627.00;;;13.53;40.61
16613;BME280;8419;52.358;9.752;2023-02-04T04:52:45;102635.00;;;13.41;40.76
16613;BME280;8419;52.358;9.752;2023-02-04T04:55:31;102637.00;;;13.34;40.78
16613;BME280;8419;52.358;9.752;2023-02-04T04:58:17;102651.00;;;13.30;40.74
16613;BME280;8419;52.358;9.752;2023-02-04T05:01:03;102660.00;;;13.26;40.76
16613;BME280;8419;52.358;9.752;2023-02-04T05:03:49;102659.00;;;13.19;40.81
16613;BME280;8419;52.358;9.752;2023-02-04T05:06:34;102662.00;;;13.16;40.77
16613;BME280;8419;52.358;9.752;2023-02-04T05:09:20;102660.00;;;13.11;40.83
16613;BME280;8419;52.358;9.752;2023-02-04T05:12:05;102659.00;;;13.10;40.79
16613;BME280;8419;52.358;9.752;2023-02-04T05:14:51;102656.00;;;13.07;40.87
16613;BME280;8419;52.358;9.752;2023-02-04T05:17:36;102668.00;;;13.08;40.76
16613;BME280;8419;52.358;9.752;2023-02-04T05:20:22;102668.00;;;13.15;40.56
16613;BME280;8419;52.358;9.752;2023-02-04T05:23:07;102682.00;;;13.01;40.77
16613;BME280;8419;52.358;9.752;2023-02-04T05:25:53;102680.00;;;12.97;40.77
16613;BME280;8419;52.358;9.752;2023-02-04T05:28:38;102692.00;;;12.96;40.73
16613;BME280;8419;52.358;9.752;2023-02-04T05:31:25;102692.00;;;12.92;40.79
16613;BME280;8419;52.358;9.752;2023-02-04T05:34:11;102689.00;;;12.89;40.82
16613;BME280;8419;52.358;9.752;2023-02-04T05:36:59;102691.00;;;12.88;40.82
16613;BME280;8419;52.358;9.752;2023-02-04T05:39:44;102707.00;;;12.82;40.91
16613;BME280;8419;52.358;9.752;2023-02-04T05:42:31;102719.00;;;12.85;40.83
16613;BME280;8419;52.358;9.752;2023-02-04T05:45:17;102719.00;;;12.72;41.00
16613;BME280;8419;52.358;9.752;2023-02-04T05:48:04;102718.00;;;12.81;40.84
16613;BME280;8419;52.358;9.752;2023-02-04T05:50:49;102725.00;;;12.84;40.70
16613;BME280;8419;52.358;9.752;2023-02-04T05:53:35;102728.00;;;12.91;40.48
16613;BME280;8419;52.358;9.752;2023-02-04T05:56:21;102732.00;;;12.75;40.76
16613;BME280;8419;52.358;9.752;2023-02-04T05:59:07;102741.00;;;12.73;40.81
16613;BME280;8419;52.358;9.752;2023-02-04T06:01:53;102751.00;;;12.80;40.70
16613;BME280;8419;52.358;9.752;2023-02-04T06:04:39;102756.00;;;12.77;40.73
16613;BME280;8419;52.358;9.752;2023-02-04T06:07:24;102759.00;;;12.74;40.73
16613;BME280;8419;52.358;9.752;2023-02-04T06:10:10;102750.00;;;12.66;40.84
16613;BME280;8419;52.358;9.752;2023-02-04T06:12:56;102758.00;;;12.69;40.79
16613;BME280;8419;52.358;9.752;2023-02-04T06:15:43;102752.00;;;12.48;41.06
16613;BME280;8419;52.358;9.752;2023-02-04T06:18:28;102768.00;;;12.56;40.91
16613;BME280;8419;52.358;9.752;2023-02-04T06:21:14;102765.00;;;12.64;40.69
16613;BME280;8419;52.358;9.752;2023-02-04T06:24:00;102769.00;;;12.61;40.77
16613;BME280;8419;52.358;9.752;2023-02-04T06:26:45;102781.00;;;12.60;40.81
16613;BME280;8419;52.358;9.752;2023-02-04T06:29:31;102779.00;;;12.58;40.84
16613;BME280;8419;52.358;9.752;2023-02-04T06:32:20;102785.00;;;12.60;40.81
16613;BME280;8419;52.358;9.752;2023-02-04T06:35:06;102793.00;;;12.55;40.89
16613;BME280;8419;52.358;9.752;2023-02-04T06:37:52;102809.00;;;12.58;40.84
16613;BME280;8419;52.358;9.752;2023-02-04T06:40:38;102805.00;;;12.59;40.86
16613;BME280;8419;52.358;9.752;2023-02-04T06:43:23;102800.00;;;12.59;40.88
16613;BME280;8419;52.358;9.752;2023-02-04T06:46:11;102807.00;;;12.65;40.81
16613;BME280;8419;52.358;9.752;2023-02-04T06:48:59;102807.00;;;12.66;40.83
16613;BME280;8419;52.358;9.752;2023-02-04T06:51:45;102807.00;;;12.70;40.81
16613;BME280;8419;52.358;9.752;2023-02-04T06:54:32;102807.00;;;12.76;40.70
16613;BME280;8419;52.358;9.752;2023-02-04T06:57:19;102807.00;;;12.76;40.73
16613;BME280;8419;52.358;9.752;2023-02-04T07:00:08;102812.00;;;12.75;40.77
16613;BME280;8419;52.358;9.752;2023-02-04T07:02:54;102821.00;;;12.77;40.75
16613;BME280;8419;52.358;9.752;2023-02-04T07:05:41;102827.00;;;12.81;40.69
16613;BME280;8419;52.358;9.752;2023-02-04T07:08:26;102834.00;;;12.80;40.67
16613;BME280;8419;52.358;9.752;2023-02-04T07:11:12;102839.00;;;12.79;40.71
16613;BME280;8419;52.358;9.752;2023-02-04T07:13:58;102845.00;;;12.79;40.73
16613;BME280;8419;52.358;9.752;2023-02-04T07:16:44;102845.00;;;12.83;40.73
16613;BME280;8419;52.358;9.752;2023-02-04T07:19:29;102860.00;;;12.88;40.75
16613;BME280;8419;52.358;9.752;2023-02-04T07:22:15;102855.00;;;12.94;40.74
16613;BME280;8419;52.358;9.752;2023-02-04T07:25:01;102868.00;;;13.08;40.59
16613;BME280;8419;52.358;9.752;2023-02-04T07:27:47;102867.00;;;13.15;40.55
16613;BME280;8419;52.358;9.752;2023-02-04T07:30:32;102871.00;;;13.27;40.42
16613;BME280;8419;52.358;9.752;2023-02-04T07:33:19;102863.00;;;13.31;40.39
16613;BME280;8419;52.358;9.752;2023-02-04T07:36:05;102879.00;;;13.37;40.37
16613;BME280;8419;52.358;9.752;2023-02-04T07:38:51;102889.00;;;13.39;40.42
16613;BME280;8419;52.358;9.752;2023-02-04T07:41:37;102894.00;;;13.38;40.46
16613;BME280;8419;52.358;9.752;2023-02-04T07:44:22;102894.00;;;13.51;40.31
16613;BME280;8419;52.358;9.752;2023-02-04T07:47:08;102895.00;;;13.60;40.24
16613;BME280;8419;52.358;9.752;2023-02-04T07:49:54;102895.00;;;13.58;40.34
16613;BME280;8419;52.358;9.752;2023-02-04T07:52:41;102903.00;;;13.64;40.28
16613;BME280;8419;52.358;9.752;2023-02-04T07:55:26;102899.00;;;13.75;40.13
16613;BME280;8419;52.358;9.752;2023-02-04T07:58:13;102915.00;;;13.78;40.10
16613;BME280;8419;52.358;9.752;2023-02-04T08:00:59;102920.00;;;13.78;40.09
16613;BME280;8419;52.358;9.752;2023-02-04T08:03:45;102925.00;;;13.75;40.10
16613;BME280;8419;52.358;9.752;2023-02-04T08:06:32;102923.00;;;13.82;39.95
16613;BME280;8419;52.358;9.752;2023-02-04T08:09:17;102927.00;;;13.79;39.97
16613;BME280;8419;52.358;9.752;2023-02-04T08:12:04;102918.00;;;13.80;39.94
16613;BME280;8419;52.358;9.752;2023-02-04T08:14:51;102929.00;;;13.84;39.94
16613;BME280;8419;52.358;9.752;2023-02-04T08:17:36;102926.00;;;13.80;40.01
16613;BME280;8419;52.358;9.752;2023-02-04T08:20:23;102929.00;;;13.90;39.86
16613;BME280;8419;52.358;9.752;2023-02-04T08:23:10;102930.00;;;13.92;39.89
16613;BME280;8419;52.358;9.752;2023-02-04T08:25:55;102924.00;;;13.95;39.86
16613;BME280;8419;52.358;9.752;2023-02-04T08:28:41;102924.00;;;13.93;39.79
16613;BME280;8419;52.358;9.752;2023-02-04T08:31:28;102920.00;;;13.97;39.74
16613;BME280;8419;52.358;9.752;2023-02-04T08:34:14;102931.00;;;13.95;39.73
16613;BME280;8419;52.358;9.752;2023-02-04T08:36:59;102935.00;;;13.95;39.70
16613;BME280;8419;52.358;9.752;2023-02-04T08:39:45;102929.00;;;13.87;39.76
16613;BME280;8419;52.358;9.752;2023-02-04T08:42:37;102923.00;;;13.78;39.82
16613;BME280;8419;52.358;9.752;2023-02-04T08:45:22;102939.00;;;13.82;39.75
16613;BME280;8419;52.358;9.752;2023-02-04T08:48:07;102938.00;;;13.76;39.88
16613;BME280;8419;52.358;9.752;2023-02-04T08:50:53;102949.00;;;13.56;40.25
16613;BME280;8419;52.358;9.752;2023-02-04T08:53:40;102947.00;;;13.49;40.32
16613;BME280;8419;52.358;9.752;2023-02-04T08:56:27;102957.00;;;13.48;40.38
16613;BME280;8419;52.358;9.752;2023-02-04T08:59:13;102960.00;;;13.52;40.36
16613;BME280;8419;52.358;9.752;2023-02-04T09:01:58;102962.00;;;13.56;40.30
16613;BME280;8419;52.358;9.752;2023-02-04T09:04:46;102964.00;;;13.61;40.30
16613;BME280;8419;52.358;9.752;2023-02-04T09:07:32;102961.00;;;13.65;40.29
16613;BME280;8419;52.358;9.752;2023-02-04T09:10:18;102972.00;;;13.81;40.08
16613;BME280;8419;52.358;9.752;2023-02-04T09:13:03;102975.00;;;13.86;40.00
16613;BME280;8419;52.358;9.752;2023-02-04T09:15:49;102983.00;;;13.96;39.92
16613;BME280;8419;52.358;9.752;2023-02-04T09:18:35;102974.00;;;13.93;40.10
16613;BME280;8419;52.358;9.752;2023-02-04T09:21:21;102988.00;;;14.01;40.06
16613;BME280;8419;52.358;9.752;2023-02-04T09:24:07;102995.00;;;14.13;39.88
16613;BME280;8419;52.358;9.752;2023-02-04T09:26:54;102995.00;;;14.28;39.68
16613;BME280;8419;52.358;9.752;2023-02-04T09:29:39;103001.00;;;14.44;39.43
16613;BME280;8419;52.358;9.752;2023-02-04T09:32:25;103006.00;;;14.39;39.62
16613;BME280;8419;52.358;9.752;2023-02-04T09:35:10;103007.00;;;14.51;39.50
16613;BME280;8419;52.358;9.752;2023-02-04T09:37:55;103008.00;;;14.60;39.44
16613;BME280;8419;52.358;9.752;2023-02-04T09:40:42;102997.00;;;14.73;39.26
16613;BME280;8419;52.358;9.752;2023-02-04T09:43:33;103002.00;;;14.78;39.18
16613;BME280;8419;52.358;9.752;2023-02-04T09:46:22;103013.00;;;14.76;39.14
16613;BME280;8419;52.358;9.752;2023-02-04T09:49:12;103018.00;;;14.85;39.03
16613;BME280;8419;52.358;9.752;2023-02-04T09:52:01;103026.00;;;14.87;39.00
16613;BME280;8419;52.358;9.752;2023-02-04T09:54:46;103022.00;;;15.09;38.59
16613;BME280;8419;52.358;9.752;2023-02-04T09:57:31;103026.00;;;15.05;38.65
16613;BME280;8419;52.358;9.752;2023-02-04T10:00:29;103026.00;;;15.19;38.46
16613;BME280;8419;52.358;9.752;2023-02-04T10:03:16;103030.00;;;15.25;38.42
16613;BME280;8419;52.358;9.752;2023-02-04T10:06:03;103037.00;;;15.46;38.09
16613;BME280;8419;52.358;9.752;2023-02-04T10:08:49;103035.00;;;15.63;37.88
16613;BME280;8419;52.358;9.752;2023-02-04T10:11:37;103038.00;;;15.86;37.59
16613;BME280;8419;52.358;9.752;2023-02-04T10:14:24;103044.00;;;16.08;37.36
16613;BME280;8419;52.358;9.752;2023-02-04T10:17:11;103054.00;;;16.31;37.04
16613;BME280;8419;52.358;9.752;2023-02-04T10:19:58;103052.00;;;16.47;36.82
16613;BME280;8419;52.358;9.752;2023-02-04T10:22:46;103060.00;;;16.63;36.58
16613;BME280;8419;52.358;9.752;2023-02-04T10:25:32;103058.00;;;16.77;36.33
16613;BME280;8419;52.358;9.752;2023-02-04T10:28:17;103059.00;;;16.79;36.29
16613;BME280;8419;52.358;9.752;2023-02-04T10:31:10;103063.00;;;16.72;36.29
16613;BME280;8419;52.358;9.752;2023-02-04T10:34:12;103070.00;;;16.73;36.28
16613;BME280;8419;52.358;9.752;2023-02-04T10:36:58;103067.00;;;16.90;36.08
16613;BME280;8419;52.358;9.752;2023-02-04T10:39:44;103077.00;;;16.84;36.14
16613;BME280;8419;52.358;9.752;2023-02-04T10:42:30;103076.00;;;16.91;35.97
16613;BME280;8419;52.358;9.752;2023-02-04T10:45:24;103078.00;;;16.90;35.96
16613;BME280;8419;52.358;9.752;2023-02-04T10:48:16;103087.00;;;17.05;35.64
16613;BME280;8419;52.358;9.752;2023-02-04T10:51:04;103080.00;;;17.04;35.56
16613;BME280;8419;52.358;9.752;2023-02-04T10:53:49;103084.00;;;16.89;35.67
16613;BME280;8419;52.358;9.752;2023-02-04T10:56:54;103078.00;;;16.75;35.85
16613;BME280;8419;52.358;9.752;2023-02-04T10:59:41;103081.00;;;16.81;35.75
16613;BME280;8419;52.358;9.752;2023-02-04T11:02:39;103080.00;;;16.88;35.56
16613;BME280;8419;52.358;9.752;2023-02-04T11:05:29;103082.00;;;16.93;35.43
16613;BME280;8419;52.358;9.752;2023-02-04T11:08:22;103078.00;;;16.84;35.47
16613;BME280;8419;52.358;9.752;2023-02-04T11:11:14;103074.00;;;16.82;35.42
16613;BME280;8419;52.358;9.752;2023-02-04T11:14:01;103071.00;;;16.86;35.32
16613;BME280;8419;52.358;9.752;2023-02-04T11:16:48;103078.00;;;16.87;35.26
16613;BME280;8419;52.358;9.752;2023-02-04T11:19:36;103084.00;;;16.97;35.08
16613;BME280;8419;52.358;9.752;2023-02-04T11:22:34;103080.00;;;16.88;35.11
16613;BME280;8419;52.358;9.752;2023-02-04T11:25:33;103088.00;;;16.98;35.06
16613;BME280;8419;52.358;9.752;2023-02-04T11:28:24;103084.00;;;17.28;34.72
16613;BME280;8419;52.358;9.752;2023-02-04T11:31:22;103079.00;;;17.45;34.49
16613;BME280;8419;52.358;9.752;2023-02-04T11:34:27;103073.00;;;17.51;34.34
16613;BME280;8419;52.358;9.752;2023-02-04T11:37:34;103082.00;;;17.58;34.32
16613;BME280;8419;52.358;9.752;2023-02-04T11:40:24;103090.00;;;17.82;34.09
16613;BME280;8419;52.358;9.752;2023-02-04T11:43:13;103086.00;;;17.90;33.90
16613;BME280;8419;52.358;9.752;2023-02-04T11:46:09;103091.00;;;18.07;33.75
16613;BME280;8419;52.358;9.752;2023-02-04T11:48:58;103087.00;;;18.22;33.47
16613;BME280;8419;52.358;9.752;2023-02-04T11:51:44;103100.00;;;18.22;33.40
16613;BME280;8419;52.358;9.752;2023-02-04T11:54:31;103098.00;;;18.15;33.33
16613;BME280;8419;52.358;9.752;2023-02-04T11:57:17;103099.00;;;17.77;33.64
16613;BME280;8419;52.358;9.752;2023-02-04T12:00:13;103098.00;;;17.64;33.80
16613;BME280;8419;52.358;9.752;2023-02-04T12:03:16;103095.00;;;17.59;33.85
16613;BME280;8419;52.358;9.752;2023-02-04T12:06:05;103095.00;;;17.69;33.74
16613;BME280;8419;52.358;9.752;2023-02-04T12:08:51;103100.00;;;17.65;33.70
16613;BME280;8419;52.358;9.752;2023-02-04T12:11:37;103096.00;;;17.54;33.82
16613;BME280;8419;52.358;9.752;2023-02-04T12:14:29;103094.00;;;17.46;33.88
16613;BME280;8419;52.358;9.752;2023-02-04T12:17:17;103091.00;;;17.48;33.77
16613;BME280;8419;52.358;9.752;2023-02-04T12:20:03;103085.00;;;17.30;33.95
16613;BME280;8419;52.358;9.752;2023-02-04T12:22:50;103088.00;;;17.18;34.00
16613;BME280;8419;52.358;9.752;2023-02-04T12:25:35;103095.00;;;17.08;33.77
16613;BME280;8419;52.358;9.752;2023-02-04T12:28:25;103095.00;;;17.16;33.70
16613;BME280;8419;52.358;9.752;2023-02-04T12:31:13;103099.00;;;17.15;33.72
16613;BME280;8419;52.358;9.752;2023-02-04T12:34:00;103101.00;;;17.43;33.66
16613;BME280;8419;52.358;9.752;2023-02-04T12:36:47;103106.00;;;17.91;33.32
16613;BME280;8419;52.358;9.752;2023-02-04T12:39:32;103109.00;;;18.59;32.74
16613;BME280;8419;52.358;9.752;2023-02-04T12:42:18;103110.00;;;19.19;32.19
16613;BME280;8419;52.358;9.752;2023-02-04T12:45:03;103106.00;;;19.72;31.66
16613;BME280;8419;52.358;9.752;2023-02-04T12:47:49;103102.00;;;20.16;31.18
16613;BME280;8419;52.358;9.752;2023-02-04T12:50:38;103094.00;;;20.51;30.87
16613;BME280;8419;52.358;9.752;2023-02-04T12:53:23;103111.00;;;20.81;30.58
16613;BME280;8419;52.358;9.752;2023-02-04T12:56:10;103109.00;;;21.14;30.20
16613;BME280;8419;52.358;9.752;2023-02-04T12:58:55;103113.00;;;21.41;29.90
16613;BME280;8419;52.358;9.752;2023-02-04T13:01:41;103122.00;;;21.43;29.79
16613;BME280;8419;52.358;9.752;2023-02-04T13:04:30;103109.00;;;21.65;29.48
16613;BME280;8419;52.358;9.752;2023-02-04T13:07:17;103123.00;;;21.32;29.57
16613;BME280;8419;52.358;9.752;2023-02-04T13:10:04;103116.00;;;21.37;29.70
16613;BME280;8419;52.358;9.752;2023-02-04T13:12:50;103117.00;;;21.54;29.22
16613;BME280;8419;52.358;9.752;2023-02-04T13:18:19;103119.00;;;20.86;29.56
16613;BME280;8419;52.358;9.752;2023-02-04T13:21:08;103122.00;;;20.45;29.73
16613;BME280;8419;52.358;9.752;2023-02-04T13:23:53;103131.00;;;19.97;30.08
16613;BME280;8419;52.358;9.752;2023-02-04T13:26:38;103135.00;;;19.68;30.23
16613;BME280;8419;52.358;9.752;2023-02-04T13:29:25;103142.00;;;19.43;30.34
16613;BME280;8419;52.358;9.752;2023-02-04T13:32:12;103131.00;;;19.07;30.65
16613;BME280;8419;52.358;9.752;2023-02-04T13:34:59;103126.00;;;18.88;30.72
16613;BME280;8419;52.358;9.752;2023-02-04T13:37:46;103122.00;;;19.09;30.42
16613;BME280;8419;52.358;9.752;2023-02-04T13:40:32;103129.00;;;19.35;30.15
16613;BME280;8419;52.358;9.752;2023-02-04T13:43:18;103128.00;;;19.37;29.96
16613;BME280;8419;52.358;9.752;2023-02-04T13:46:10;103123.00;;;19.10;30.22
16613;BME280;8419;52.358;9.752;2023-02-04T13:48:57;103130.00;;;19.05;30.26
16613;BME280;8419;52.358;9.752;2023-02-04T13:51:47;103134.00;;;19.19;30.17
16613;BME280;8419;52.358;9.752;2023-02-04T13:54:32;103131.00;;;19.17;29.99
16613;BME280;8419;52.358;9.752;2023-02-04T13:57:19;103128.00;;;18.85;30.24
16613;BME280;8419;52.358;9.752;2023-02-04T14:00:10;103125.00;;;18.47;30.59
16613;BME280;8419;52.358;9.752;2023-02-04T14:02:56;103133.00;;;18.30;30.64
16613;BME280;8419;52.358;9.752;2023-02-04T14:05:41;103124.00;;;18.10;30.86
16613;BME280;8419;52.358;9.752;2023-02-04T14:08:26;103125.00;;;18.10;30.79
16613;BME280;8419;52.358;9.752;2023-02-04T14:11:14;103123.00;;;18.14;30.77
16613;BME280;8419;52.358;9.752;2023-02-04T14:14:01;103126.00;;;18.80;30.16
16613;BME280;8419;52.358;9.752;2023-02-04T14:16:49;103122.00;;;19.34;29.52
16613;BME280;8419;52.358;9.752;2023-02-04T14:19:37;103119.00;;;19.32;29.39
16613;BME280;8419;52.358;9.752;2023-02-04T14:22:25;103116.00;;;19.03;29.68
16613;BME280;8419;52.358;9.752;2023-02-04T14:25:11;103122.00;;;18.84;29.90
16613;BME280;8419;52.358;9.752;2023-02-04T14:27:59;103118.00;;;18.71;30.02
16613;BME280;8419;52.358;9.752;2023-02-04T14:30:49;103119.00;;;18.57;30.10
16613;BME280;8419;52.358;9.752;2023-02-04T14:33:39;103123.00;;;18.47;30.13
16613;BME280;8419;52.358;9.752;2023-02-04T14:36:41;103120.00;;;18.35;30.21
16613;BME280;8419;52.358;9.752;2023-02-04T14:39:27;103117.00;;;18.16;30.33
16613;BME280;8419;52.358;9.752;2023-02-04T14:42:13;103131.00;;;18.21;30.28
16613;BME280;8419;52.358;9.752;2023-02-04T14:45:01;103124.00;;;18.16;30.26
16613;BME280;8419;52.358;9.752;2023-02-04T14:47:49;103133.00;;;18.12;30.20